createdAt,value
2023-01-13T00:01:44.824Z,95709.63
2023-01-13T00:06:46.404Z,95699.00
2023-01-13T00:11:47.898Z,95690.03
2023-01-13T00:16:49.394Z,95677.69
2023-01-13T00:21:50.891Z,95673.53
2023-01-13T00:26:52.381Z,95673.69
2023-01-13T00:31:53.938Z,95680.06
2023-01-13T00:36:55.480Z,95660.75
2023-01-13T00:41:56.996Z,95633.28
2023-01-13T00:46:58.532Z,95625.47
2023-01-13T00:52:00.048Z,95604.97
2023-01-13T00:57:01.531Z,95615.84
2023-01-13T01:02:03.174Z,95627.69
2023-01-13T01:07:04.765Z,95631.81
2023-01-13T01:12:06.436Z,95631.66
2023-01-13T01:17:07.971Z,95633.09
2023-01-13T01:22:09.629Z,95635.63
2023-01-13T01:27:11.119Z,95638.25
2023-01-13T01:32:12.736Z,95643.97
2023-01-13T01:37:14.256Z,95625.50
2023-01-13T01:42:17.040Z,95647.03
2023-01-13T01:47:19.686Z,95651.75
2023-01-13T01:52:26.806Z,95646.81
2023-01-13T01:57:39.598Z,95638.50
2023-01-13T02:02:45.120Z,95637.84
2023-01-13T02:07:51.417Z,95627.50
2023-01-13T02:12:56.121Z,95624.13
2023-01-13T02:18:15.623Z,95604.72
2023-01-13T02:23:35.940Z,95601.03
2023-01-13T02:29:16.981Z,95590.09
2023-01-13T02:35:14.071Z,95581.16
2023-01-13T02:40:25.042Z,95587.50
2023-01-13T02:45:32.781Z,95575.75
2023-01-13T02:50:44.304Z,95577.06
2023-01-13T02:55:53.124Z,95587.09
2023-01-13T03:00:55.168Z,95600.47
2023-01-13T03:06:05.535Z,95599.53
2023-01-13T03:11:12.929Z,95587.78
2023-01-13T03:16:28.237Z,95591.59
2023-01-13T03:21:40.947Z,95596.88
2023-01-13T03:27:07.400Z,95591.72
2023-01-13T03:32:27.175Z,95594.53
2023-01-13T03:37:34.792Z,95596.50
2023-01-13T03:42:38.220Z,95592.31
2023-01-13T03:47:55.203Z,95597.06
2023-01-13T03:53:22.238Z,95577.66
2023-01-13T03:58:28.915Z,95574.03
2023-01-13T04:03:53.404Z,95571.22
2023-01-13T04:09:01.533Z,95562.22
2023-01-13T04:14:04.666Z,95549.38
2023-01-13T04:19:06.158Z,95545.16
2023-01-13T04:24:08.802Z,95550.84
2023-01-13T04:29:10.370Z,95553.81
2023-01-13T04:34:11.922Z,95572.41
2023-01-13T04:39:13.460Z,95553.16
2023-01-13T04:44:14.920Z,95568.03
2023-01-13T04:49:16.428Z,95566.47
2023-01-13T04:54:17.932Z,95564.75
2023-01-13T04:59:19.448Z,95561.63
2023-01-13T05:04:21.060Z,95561.09
2023-01-13T05:09:22.542Z,95543.88
2023-01-13T05:14:24.036Z,95536.78
2023-01-13T05:19:26.723Z,95552.00
2023-01-13T05:24:28.220Z,95544.53
2023-01-13T05:29:29.734Z,95540.94
2023-01-13T05:34:32.566Z,95533.84
2023-01-13T05:39:34.155Z,95549.31
2023-01-13T05:44:35.745Z,95565.19
2023-01-13T05:49:37.255Z,95564.66
2023-01-13T05:54:38.701Z,95559.22
2023-01-13T05:59:40.262Z,95539.94
2023-01-13T06:04:41.842Z,95553.97
2023-01-13T06:09:43.363Z,95542.13
2023-01-13T06:14:44.806Z,95565.31
2023-01-13T06:19:46.355Z,95562.66
2023-01-13T06:24:50.264Z,95565.38
2023-01-13T06:29:51.870Z,95563.13
2023-01-13T06:34:58.567Z,95556.34
2023-01-13T06:40:02.606Z,95559.25
2023-01-13T06:45:04.511Z,95541.69
2023-01-13T06:50:06.304Z,95540.97
2023-01-13T06:55:08.008Z,95555.13
2023-01-13T07:00:10.138Z,95547.44
2023-01-13T07:05:11.964Z,95548.63
2023-01-13T07:10:15.874Z,95557.38
2023-01-13T07:15:17.332Z,95552.84
2023-01-13T07:20:18.824Z,95569.03
2023-01-13T07:25:21.041Z,95554.75
2023-01-13T07:30:22.521Z,95559.28
2023-01-13T07:35:23.959Z,95553.00
2023-01-13T07:40:25.459Z,95539.06
2023-01-13T07:45:26.938Z,95545.13
2023-01-13T07:50:28.497Z,95537.06
2023-01-13T07:55:30.057Z,95540.25
2023-01-13T08:00:31.556Z,95546.25
2023-01-13T08:05:35.269Z,95543.78
2023-01-13T08:10:36.877Z,95545.97
2023-01-13T08:15:38.395Z,95552.69
2023-01-13T08:20:40.002Z,95547.19
2023-01-13T08:25:41.570Z,95546.34
2023-01-13T08:30:43.392Z,95563.19
2023-01-13T08:35:44.937Z,95553.19
2023-01-13T08:40:46.582Z,95562.19
2023-01-13T08:46:00.071Z,95570.44
2023-01-13T08:51:04.779Z,95588.44
2023-01-13T08:56:09.562Z,95597.88
2023-01-13T09:01:15.349Z,95600.38
2023-01-13T09:06:17.026Z,95607.25
2023-01-13T09:11:20.555Z,95586.53
2023-01-13T09:16:22.062Z,95583.09
2023-01-13T09:21:23.603Z,95605.16
2023-01-13T09:26:25.156Z,95612.31
2023-01-13T09:31:26.736Z,95602.72
2023-01-13T09:36:28.320Z,95620.69
2023-01-13T09:41:34.483Z,95618.72
2023-01-13T09:46:59.478Z,95620.91
2023-01-13T09:52:18.841Z,95621.38
2023-01-13T09:57:20.588Z,95618.53
2023-01-13T10:02:29.207Z,95622.50
2023-01-13T10:07:34.189Z,95626.94
2023-01-13T10:12:35.659Z,95616.34
2023-01-13T10:17:48.100Z,95607.84
2023-01-13T10:23:01.718Z,95619.97
2023-01-13T10:28:10.271Z,95625.22
2023-01-13T10:33:13.329Z,95629.91
2023-01-13T10:38:16.987Z,95624.75
2023-01-13T10:43:18.545Z,95645.38
2023-01-13T10:48:20.131Z,95637.72
2023-01-13T10:53:25.816Z,95639.22
2023-01-13T10:58:28.300Z,95645.16
2023-01-13T11:03:38.813Z,95664.38
2023-01-13T11:08:45.986Z,95664.34
2023-01-13T11:13:49.833Z,95661.72
2023-01-13T11:19:03.842Z,95665.56
2023-01-13T11:24:23.917Z,95648.09
2023-01-13T11:29:39.771Z,95642.75
2023-01-13T11:34:44.599Z,95645.31
2023-01-13T11:39:49.545Z,95639.16
2023-01-13T11:45:00.023Z,95647.25
2023-01-13T11:50:02.060Z,95667.91
2023-01-13T11:55:25.219Z,95660.84
2023-01-13T12:00:45.686Z,95671.47
2023-01-13T12:06:10.191Z,95677.75
2023-01-13T12:11:38.066Z,95667.34
2023-01-13T12:16:47.896Z,95679.69
2023-01-13T12:22:12.414Z,95695.31
2023-01-13T12:27:22.709Z,95698.69
2023-01-13T12:32:34.986Z,95688.09
2023-01-13T12:37:47.266Z,95686.72
2023-01-13T12:42:58.767Z,95696.59
2023-01-13T12:48:00.811Z,95697.75
2023-01-13T12:53:31.238Z,95692.59
2023-01-13T12:58:32.792Z,95710.31
2023-01-13T13:03:36.067Z,95701.34
2023-01-13T13:09:03.507Z,95694.22
2023-01-13T13:14:13.669Z,95698.22
2023-01-13T13:19:18.181Z,95716.06
2023-01-13T13:24:19.713Z,95730.94
2023-01-13T13:29:43.869Z,95723.47
2023-01-13T13:35:12.683Z,95730.09
2023-01-13T13:40:15.085Z,95735.41
2023-01-13T13:45:24.253Z,95730.19
2023-01-13T13:50:26.023Z,95716.28
2023-01-13T13:55:29.671Z,95738.66
2023-01-13T14:00:35.864Z,95737.97
2023-01-13T14:05:37.705Z,95746.22
2023-01-13T14:10:41.467Z,95755.38
2023-01-13T14:15:44.426Z,95765.59
2023-01-13T14:21:18.373Z,95764.84
2023-01-13T14:26:24.970Z,95766.63
2023-01-13T14:31:26.713Z,95768.03
2023-01-13T14:36:37.615Z,95773.31
2023-01-13T14:41:41.821Z,95798.47
2023-01-13T14:46:45.095Z,95810.75
2023-01-13T14:51:46.681Z,95832.06
2023-01-13T14:56:52.213Z,95851.56
2023-01-13T15:01:53.771Z,95835.81
2023-01-13T15:06:56.926Z,95837.59
2023-01-13T15:11:59.367Z,95848.31
2023-01-13T15:17:00.868Z,95842.91
2023-01-13T15:22:02.322Z,95847.19
2023-01-13T15:27:14.875Z,95857.34
2023-01-13T15:32:21.258Z,95841.19
2023-01-13T15:37:22.750Z,95838.00
2023-01-13T15:42:24.259Z,95840.59
2023-01-13T15:47:27.214Z,95854.16
2023-01-13T15:52:28.753Z,95873.69
2023-01-13T15:57:35.403Z,95899.34
2023-01-13T16:02:36.895Z,95930.25
2023-01-13T16:07:38.905Z,95959.91
2023-01-13T16:12:40.474Z,95959.38
2023-01-13T16:17:46.099Z,95967.09
2023-01-13T16:22:47.695Z,95950.44
2023-01-13T16:27:49.587Z,95971.88
2023-01-13T16:32:51.519Z,95991.69
2023-01-13T16:37:52.991Z,96010.81
2023-01-13T16:42:54.590Z,96025.31
2023-01-13T16:47:56.280Z,96032.13
2023-01-13T16:52:57.820Z,96038.31
2023-01-13T16:57:59.317Z,96029.09
2023-01-13T17:03:00.757Z,96029.63
2023-01-13T17:08:02.365Z,96016.53
2023-01-13T17:13:14.850Z,96022.00
2023-01-13T17:18:17.724Z,96023.75
2023-01-13T17:23:19.240Z,96023.00
2023-01-13T17:28:20.775Z,96008.97
2023-01-13T17:33:22.237Z,96006.63
2023-01-13T17:38:23.723Z,96008.47
2023-01-13T17:43:26.418Z,96034.44
2023-01-13T17:48:28.005Z,96063.06
2023-01-13T17:53:30.738Z,96064.19
2023-01-13T17:58:32.320Z,96049.88
2023-01-13T18:03:33.933Z,96054.13
2023-01-13T18:08:35.490Z,96052.81
2023-01-13T18:13:36.937Z,96058.59
2023-01-13T18:18:40.381Z,96056.88
2023-01-13T18:23:41.929Z,96055.91
2023-01-13T18:28:43.397Z,96065.81
2023-01-13T18:33:44.935Z,96063.88
2023-01-13T18:38:48.233Z,96082.47
2023-01-13T18:43:49.683Z,96088.22
2023-01-13T18:48:51.124Z,96103.59
2023-01-13T18:53:52.628Z,96102.22
2023-01-13T18:58:54.140Z,96109.88
2023-01-13T19:03:56.999Z,96128.09
2023-01-13T19:08:59.809Z,96123.16
2023-01-13T19:14:01.737Z,96120.56
2023-01-13T19:19:03.416Z,96123.59
2023-01-13T19:24:05.227Z,96144.56
2023-01-13T19:29:08.634Z,96173.53
2023-01-13T19:34:10.100Z,96172.72
2023-01-13T19:39:11.666Z,96158.72
2023-01-13T19:44:14.798Z,96160.97
2023-01-13T19:49:16.345Z,96158.91
2023-01-13T19:54:17.898Z,96164.22
2023-01-13T19:59:19.441Z,96184.31
2023-01-13T20:04:20.966Z,96190.13
2023-01-13T20:09:22.576Z,96208.22
2023-01-13T20:14:24.158Z,96202.25
2023-01-13T20:19:25.650Z,96221.53
2023-01-13T20:24:27.269Z,96260.22
2023-01-13T20:29:28.937Z,96261.88
2023-01-13T20:34:30.478Z,96273.22
2023-01-13T20:39:31.990Z,96271.47
2023-01-13T20:44:33.799Z,96280.34
2023-01-13T20:49:35.413Z,96273.44
2023-01-13T20:54:37.810Z,96280.53
2023-01-13T20:59:39.855Z,96284.59
2023-01-13T21:04:41.935Z,96272.19
2023-01-13T21:09:43.581Z,96263.06
2023-01-13T21:14:45.060Z,96272.38
2023-01-13T21:19:46.511Z,96283.53
2023-01-13T21:24:48.036Z,96283.91
2023-01-13T21:29:49.545Z,96285.09
2023-01-13T21:34:51.045Z,96282.75
2023-01-13T21:39:52.509Z,96282.78
2023-01-13T21:44:53.986Z,96276.31
2023-01-13T21:49:55.450Z,96281.47
2023-01-13T21:54:56.885Z,96301.59
2023-01-13T21:59:58.367Z,96300.28
2023-01-13T22:05:01.017Z,96277.31
2023-01-13T22:10:03.223Z,96276.69
2023-01-13T22:15:05.167Z,96276.84
2023-01-13T22:20:07.221Z,96279.69
2023-01-13T22:25:12.095Z,96311.84
2023-01-13T22:30:13.577Z,96325.63
2023-01-13T22:35:16.166Z,96326.91
2023-01-13T22:40:17.645Z,96324.78
2023-01-13T22:45:19.087Z,96327.91
2023-01-13T22:50:20.583Z,96313.41
2023-01-13T22:55:22.128Z,96320.91
2023-01-13T23:00:23.631Z,96306.22
2023-01-13T23:05:28.818Z,96317.13
2023-01-13T23:10:30.341Z,96314.94
2023-01-13T23:15:34.661Z,96327.56
2023-01-13T23:20:36.185Z,96303.06
2023-01-13T23:25:37.685Z,96309.13
2023-01-13T23:30:40.405Z,96308.09
2023-01-13T23:35:41.983Z,96313.44
2023-01-13T23:40:45.370Z,96313.09
2023-01-13T23:45:47.089Z,96316.59
2023-01-13T23:51:03.172Z,96319.75
2023-01-13T23:56:07.618Z,96327.16
